Dades meteomassalio
Diari Summary for Noviembre 12, 2017 Units:  Metric    English   Both
« Previous Day
Next Day »
Diari Semanal Mensual Anual Personalitzat
  Maxima: Minima: Mijana:
Temperatura: 18.9 °C 10.6 °C 14.1 °C
Rosada: 8.6 °C 4.7 °C 6.8 °C
Humitat: 70 % 49 % 62 %
Velocitat del vent: 68.5 km/h 11.1 km/h 33.6 km/h
Racha vent: 68.5 km/h - -
Vent:- - NW
Pressio: 1026.3 hPa 1016.8 hPa -
Pluja: 0.0 mm    
Historical Graphs
 
 
Tabular Data for Noviembre 12, 2017
Time Temperature Dew Point Pressure Wind Wind Speed Wind Gust Humidity Rainfall Rate (Hourly) solar Conditions
00:02 11.1 °C 4.8 °C 1026.3 hPa WNW 20.4 km/h 20.4 km/h 65 % 0.0 mm 0.0 W/m2 CLR
00:07 11.1 °C 4.8 °C 1026.3 hPa NW 20.9 km/h 20.9 km/h 65 % 0.0 mm 0.0 W/m2 CLR
00:12 11.1 °C 4.8 °C 1026.3 hPa NW 25.9 km/h 25.9 km/h 65 % 0.0 mm 0.0 W/m2 CLR
00:17 11.7 °C 5.3 °C 1026.3 hPa WNW 25.9 km/h 25.9 km/h 65 % 0.0 mm 0.0 W/m2 CLR
00:22 11.7 °C 5.3 °C 1026.3 hPa WNW 18.5 km/h 18.5 km/h 65 % 0.0 mm 0.0 W/m2 CLR
00:27 11.7 °C 5.3 °C 1026.3 hPa WNW 25.9 km/h 25.9 km/h 65 % 0.0 mm 0.0 W/m2 CLR
00:32 11.7 °C 5.3 °C 1026.3 hPa West 24.1 km/h 24.1 km/h 65 % 0.0 mm 0.0 W/m2 CLR
00:37 11.7 °C 5.5 °C 1026.3 hPa WNW 18.5 km/h 18.5 km/h 66 % 0.0 mm 0.0 W/m2 CLR
00:42 11.7 °C 5.5 °C 1026.0 hPa WNW 18.5 km/h 18.5 km/h 66 % 0.0 mm 0.0 W/m2 CLR
00:52 11.1 °C 5.0 °C 1026.0 hPa NW 27.8 km/h 27.8 km/h 66 % 0.0 mm 0.0 W/m2 CLR
00:57 11.1 °C 5.0 °C 1026.0 hPa NW 24.1 km/h 24.1 km/h 66 % 0.0 mm 0.0 W/m2 CLR
01:02 11.1 °C 5.0 °C 1025.6 hPa NW 24.1 km/h 24.1 km/h 66 % 0.0 mm 0.0 W/m2 CLR
01:07 11.7 °C 5.5 °C 1025.6 hPa NW 33.3 km/h 33.3 km/h 66 % 0.0 mm 0.0 W/m2 CLR
01:12 11.7 °C 5.5 °C 1025.6 hPa WNW 29.6 km/h 29.6 km/h 66 % 0.0 mm 0.0 W/m2 CLR
01:17 11.7 °C 5.7 °C 1025.6 hPa NNW 19.3 km/h 19.3 km/h 67 % 0.0 mm 0.0 W/m2 CLR
01:22 12.2 °C 6.3 °C 1025.6 hPa WNW 18.5 km/h 18.5 km/h 67 % 0.0 mm 0.0 W/m2 CLR
01:27 12.2 °C 6.3 °C 1025.6 hPa WNW 18.5 km/h 18.5 km/h 67 % 0.0 mm 0.0 W/m2 CLR
01:32 11.7 °C 5.7 °C 1025.3 hPa NW 18.5 km/h 18.5 km/h 67 % 0.0 mm 0.0 W/m2 CLR
01:37 11.7 °C 5.7 °C 1025.3 hPa WNW 25.9 km/h 25.9 km/h 67 % 0.0 mm 0.0 W/m2 CLR
01:42 11.7 °C 5.7 °C 1025.3 hPa WNW 18.5 km/h 18.5 km/h 67 % 0.0 mm 0.0 W/m2 CLR
01:47 11.7 °C 5.7 °C 1025.3 hPa WNW 22.2 km/h 22.2 km/h 67 % 0.0 mm 0.0 W/m2 CLR
01:52 11.7 °C 5.7 °C 1024.9 hPa NW 22.2 km/h 22.2 km/h 67 % 0.0 mm 0.0 W/m2 CLR
01:57 11.7 °C 5.7 °C 1024.9 hPa WNW 22.2 km/h 22.2 km/h 67 % 0.0 mm 0.0 W/m2 CLR
02:02 11.1 °C 5.2 °C 1024.9 hPa WNW 19.3 km/h 19.3 km/h 67 % 0.0 mm 0.0 W/m2 CLR
02:07 11.1 °C 5.2 °C 1024.9 hPa WNW 18.5 km/h 18.5 km/h 67 % 0.0 mm 0.0 W/m2 CLR
02:12 11.1 °C 5.2 °C 1024.9 hPa West 20.9 km/h 20.9 km/h 67 % 0.0 mm 0.0 W/m2 CLR
02:17 11.1 °C 5.2 °C 1024.9 hPa West 16.7 km/h 16.7 km/h 67 % 0.0 mm 0.0 W/m2 CLR
02:22 11.1 °C 5.4 °C 1024.9 hPa WNW 16.7 km/h 16.7 km/h 68 % 0.0 mm 0.0 W/m2 CLR
02:27 10.6 °C 4.9 °C 1024.9 hPa West 11.1 km/h 11.1 km/h 68 % 0.0 mm 0.0 W/m2 CLR
02:32 10.6 °C 5.1 °C 1024.9 hPa WSW 11.1 km/h 11.1 km/h 69 % 0.0 mm 0.0 W/m2 CLR
02:37 11.1 °C 5.6 °C 1024.9 hPa West 16.7 km/h 16.7 km/h 69 % 0.0 mm 0.0 W/m2 CLR
02:42 11.1 °C 5.8 °C 1024.9 hPa West 18.5 km/h 18.5 km/h 70 % 0.0 mm 0.0 W/m2 CLR
02:47 11.1 °C 5.8 °C 1024.6 hPa West 18.5 km/h 18.5 km/h 70 % 0.0 mm 0.0 W/m2 CLR
02:52 10.6 °C 5.3 °C 1024.6 hPa West 16.7 km/h 16.7 km/h 70 % 0.0 mm 0.0 W/m2 CLR
02:57 10.6 °C 5.3 °C 1024.6 hPa West 18.5 km/h 18.5 km/h 70 % 0.0 mm 0.0 W/m2 CLR
03:02 10.6 °C 5.1 °C 1024.6 hPa NW 18.5 km/h 18.5 km/h 69 % 0.0 mm 0.0 W/m2 CLR
03:07 10.6 °C 5.1 °C 1024.6 hPa WNW 13.0 km/h 13.0 km/h 69 % 0.0 mm 0.0 W/m2 CLR
03:12 11.1 °C 5.4 °C 1024.6 hPa WNW 20.4 km/h 20.4 km/h 68 % 0.0 mm 0.0 W/m2 CLR
03:17 11.7 °C 5.7 °C 1024.6 hPa WNW 25.9 km/h 25.9 km/h 67 % 0.0 mm 0.0 W/m2 CLR
03:22 11.7 °C 5.5 °C 1024.6 hPa WNW 25.9 km/h 25.9 km/h 66 % 0.0 mm 0.0 W/m2 CLR
03:27 12.2 °C 6.1 °C 1024.6 hPa West 22.5 km/h 22.5 km/h 66 % 0.0 mm 0.0 W/m2 CLR
03:32 12.2 °C 6.1 °C 1024.3 hPa West 22.2 km/h 22.2 km/h 66 % 0.0 mm 0.0 W/m2 CLR
03:37 12.2 °C 6.1 °C 1024.3 hPa West 22.2 km/h 22.2 km/h 66 % 0.0 mm 0.0 W/m2 CLR
03:42 12.2 °C 6.1 °C 1024.3 hPa West 24.1 km/h 24.1 km/h 66 % 0.0 mm 0.0 W/m2 CLR
03:47 12.2 °C 6.1 °C 1024.3 hPa West 27.8 km/h 27.8 km/h 66 % 0.0 mm 0.0 W/m2 CLR
03:48 12.2 °C 6.1 °C 1024.3 hPa WNW 27.8 km/h 27.8 km/h 66 % 0.0 mm 0.0 W/m2 CLR
03:53 12.2 °C 6.1 °C 1024.3 hPa WNW 18.5 km/h 18.5 km/h 66 % 0.0 mm 0.0 W/m2 CLR
03:58 12.2 °C 6.3 °C 1024.3 hPa WNW 24.1 km/h 24.1 km/h 67 % 0.0 mm 0.0 W/m2 CLR
04:03 12.2 °C 6.1 °C 1023.9 hPa NNW 27.8 km/h 27.8 km/h 66 % 0.0 mm 0.0 W/m2 CLR
04:08 12.2 °C 6.3 °C 1023.9 hPa NW 31.5 km/h 31.5 km/h 67 % 0.0 mm 0.0 W/m2 CLR
04:13 12.2 °C 6.1 °C 1023.9 hPa NNW 40.7 km/h 40.7 km/h 66 % 0.0 mm 0.0 W/m2 CLR
04:21 12.2 °C 6.1 °C 1023.6 hPa NNW 38.9 km/h 38.9 km/h 66 % 0.0 mm 0.0 W/m2 CLR
04:25 12.2 °C 6.1 °C 1023.6 hPa NW 44.4 km/h 44.4 km/h 66 % 0.0 mm 0.0 W/m2 CLR
04:30 12.2 °C 6.1 °C 1023.6 hPa NNW 37.0 km/h 37.0 km/h 66 % 0.0 mm 0.0 W/m2 CLR
04:31 12.2 °C 6.1 °C 1023.6 hPa NW 37.0 km/h 37.0 km/h 66 % 0.0 mm 0.0 W/m2 CLR
04:36 12.2 °C 6.1 °C 1023.6 hPa NNW 33.3 km/h 33.3 km/h 66 % 0.0 mm 0.0 W/m2 CLR
04:41 12.8 °C 6.3 °C 1023.9 hPa NW 24.1 km/h 24.1 km/h 65 % 0.0 mm 0.0 W/m2 CLR
04:46 12.8 °C 6.3 °C 1023.9 hPa NW 19.3 km/h 19.3 km/h 65 % 0.0 mm 0.0 W/m2 CLR
04:51 12.8 °C 6.3 °C 1023.9 hPa WNW 24.1 km/h 24.1 km/h 65 % 0.0 mm 0.0 W/m2 CLR
04:56 12.8 °C 6.3 °C 1023.9 hPa WNW 18.5 km/h 18.5 km/h 65 % 0.0 mm 0.0 W/m2 CLR
05:01 12.8 °C 6.3 °C 1024.3 hPa NW 24.1 km/h 24.1 km/h 65 % 0.0 mm 0.0 W/m2 CLR
05:06 12.8 °C 6.3 °C 1023.9 hPa WNW 14.5 km/h 14.5 km/h 65 % 0.0 mm 0.0 W/m2 CLR
05:11 12.8 °C 6.3 °C 1023.9 hPa WNW 20.4 km/h 20.4 km/h 65 % 0.0 mm 0.0 W/m2 CLR
05:16 12.8 °C 6.3 °C 1023.9 hPa WNW 29.6 km/h 29.6 km/h 65 % 0.0 mm 0.0 W/m2 CLR
05:21 12.8 °C 6.3 °C 1023.9 hPa NW 27.8 km/h 27.8 km/h 65 % 0.0 mm 0.0 W/m2 CLR
05:26 12.8 °C 6.3 °C 1023.9 hPa NNW 31.5 km/h 31.5 km/h 65 % 0.0 mm 0.0 W/m2 CLR
05:31 12.8 °C 6.3 °C 1023.9 hPa NW 33.3 km/h 33.3 km/h 65 % 0.0 mm 0.0 W/m2 CLR
05:36 12.2 °C 5.8 °C 1023.9 hPa NW 31.5 km/h 31.5 km/h 65 % 0.0 mm 0.0 W/m2 CLR
05:41 12.2 °C 5.8 °C 1023.9 hPa WNW 35.2 km/h 35.2 km/h 65 % 0.0 mm 0.0 W/m2 CLR
05:46 12.2 °C 5.8 °C 1023.9 hPa NW 31.5 km/h 31.5 km/h 65 % 0.0 mm 0.0 W/m2 CLR
05:51 12.2 °C 5.8 °C 1023.9 hPa NNW 33.3 km/h 33.3 km/h 65 % 0.0 mm 0.0 W/m2 CLR
05:56 12.2 °C 5.8 °C 1023.9 hPa NNW 42.6 km/h 42.6 km/h 65 % 0.0 mm 0.0 W/m2 CLR
06:01 12.2 °C 5.8 °C 1023.9 hPa NW 33.8 km/h 33.8 km/h 65 % 0.0 mm 0.0 W/m2 CLR
06:06 12.2 °C 5.8 °C 1024.3 hPa NNW 31.5 km/h 31.5 km/h 65 % 0.0 mm 0.0 W/m2 CLR
06:11 12.2 °C 5.8 °C 1024.3 hPa NW 24.1 km/h 24.1 km/h 65 % 0.0 mm 0.0 W/m2 CLR
06:16 12.2 °C 5.8 °C 1024.3 hPa WNW 25.9 km/h 25.9 km/h 65 % 0.0 mm 0.0 W/m2 CLR
06:21 12.2 °C 5.8 °C 1024.3 hPa NW 25.9 km/h 25.9 km/h 65 % 0.0 mm 0.0 W/m2 CLR
06:26 11.7 °C 5.5 °C 1024.3 hPa NW 22.2 km/h 22.2 km/h 66 % 0.0 mm 0.0 W/m2 CLR
06:31 11.7 °C 5.5 °C 1024.3 hPa NW 29.6 km/h 29.6 km/h 66 % 0.0 mm 0.0 W/m2 CLR
06:36 11.7 °C 5.5 °C 1024.3 hPa NW 20.4 km/h 20.4 km/h 66 % 0.0 mm 0.0 W/m2 CLR
06:41 11.7 °C 5.5 °C 1023.9 hPa NW 20.9 km/h 20.9 km/h 66 % 0.0 mm 0.0 W/m2 CLR
06:46 11.7 °C 5.5 °C 1023.9 hPa WNW 25.9 km/h 25.9 km/h 66 % 0.0 mm 0.0 W/m2 CLR
06:51 11.7 °C 5.7 °C 1023.9 hPa WNW 22.2 km/h 22.2 km/h 67 % 0.0 mm 0.0 W/m2 CLR
06:56 11.1 °C 5.2 °C 1023.9 hPa NW 18.5 km/h 18.5 km/h 67 % 0.0 mm 0.0 W/m2 CLR
07:01 11.7 °C 5.7 °C 1023.9 hPa NW 27.8 km/h 27.8 km/h 67 % 0.0 mm 0.0 W/m2 CLR
07:06 11.1 °C 5.2 °C 1023.9 hPa NW 35.2 km/h 35.2 km/h 67 % 0.0 mm 0.0 W/m2 CLR
07:11 11.1 °C 5.2 °C 1023.9 hPa NNW 31.5 km/h 31.5 km/h 67 % 0.0 mm 0.0 W/m2 CLR
07:16 11.7 °C 5.7 °C 1023.9 hPa NW 20.4 km/h 20.4 km/h 67 % 0.0 mm 0.0 W/m2 CLR
07:21 11.7 °C 5.7 °C 1023.9 hPa WNW 24.1 km/h 24.1 km/h 67 % 0.0 mm 0.0 W/m2 CLR
07:26 11.7 °C 5.7 °C 1023.9 hPa NW 25.9 km/h 25.9 km/h 67 % 0.0 mm 0.0 W/m2 CLR
07:31 11.1 °C 5.2 °C 1023.9 hPa NW 29.6 km/h 29.6 km/h 67 % 0.0 mm 0.0 W/m2 CLR
07:36 11.1 °C 5.2 °C 1023.9 hPa WNW 33.3 km/h 33.3 km/h 67 % 0.0 mm 0.0 W/m2 OVC
07:41 11.1 °C 5.2 °C 1023.9 hPa NW 18.5 km/h 18.5 km/h 67 % 0.0 mm 0.0 W/m2 OVC
07:46 11.1 °C 5.2 °C 1023.9 hPa West 24.1 km/h 24.1 km/h 67 % 0.0 mm 5.0 W/m2 OVC
07:51 11.1 °C 5.4 °C 1023.9 hPa West 18.5 km/h 18.5 km/h 68 % 0.0 mm 7.0 W/m2 OVC
07:56 10.6 °C 4.9 °C 1023.9 hPa WNW 14.8 km/h 14.8 km/h 68 % 0.0 mm 9.0 W/m2 OVC
08:01 10.6 °C 4.9 °C 1023.9 hPa WNW 18.5 km/h 18.5 km/h 68 % 0.0 mm 11.0 W/m2 OVC
08:06 10.6 °C 4.9 °C 1023.9 hPa WNW 18.5 km/h 18.5 km/h 68 % 0.0 mm 14.0 W/m2 OVC
08:11 10.6 °C 4.9 °C 1023.9 hPa NW 14.8 km/h 14.8 km/h 68 % 0.0 mm 16.0 W/m2 OVC
08:16 10.6 °C 4.9 °C 1023.9 hPa NW 22.2 km/h 22.2 km/h 68 % 0.0 mm 25.0 W/m2 OVC
08:21 10.6 °C 4.7 °C 1023.9 hPa WNW 25.7 km/h 25.7 km/h 67 % 0.0 mm 35.0 W/m2 OVC
08:26 11.1 °C 5.2 °C 1023.9 hPa WNW 22.2 km/h 22.2 km/h 67 % 0.0 mm 47.0 W/m2 OVC
08:31 11.1 °C 5.2 °C 1023.9 hPa WNW 24.1 km/h 24.1 km/h 67 % 0.0 mm 53.0 W/m2 OVC
08:36 11.1 °C 5.0 °C 1023.9 hPa WNW 25.7 km/h 25.7 km/h 66 % 0.0 mm 70.0 W/m2 OVC
08:42 11.7 °C 5.5 °C 1023.9 hPa NW 31.5 km/h 31.5 km/h 66 % 0.0 mm 84.0 W/m2 OVC
08:46 11.7 °C 5.5 °C 1023.9 hPa West 29.0 km/h 29.0 km/h 66 % 0.0 mm 84.0 W/m2 BKN
08:52 11.7 °C 5.5 °C 1023.9 hPa NW 18.5 km/h 18.5 km/h 66 % 0.0 mm 114.0 W/m2 SCT
08:57 11.7 °C 5.5 °C 1023.9 hPa NW 24.1 km/h 24.1 km/h 66 % 0.0 mm 130.0 W/m2 CLR
09:02 12.2 °C 5.8 °C 1023.9 hPa NW 24.1 km/h 24.1 km/h 65 % 0.0 mm 128.0 W/m2 CLR
09:07 12.2 °C 5.8 °C 1023.9 hPa NW 24.1 km/h 24.1 km/h 65 % 0.0 mm 162.0 W/m2 CLR
09:12 12.2 °C 5.8 °C 1023.9 hPa WNW 25.9 km/h 25.9 km/h 65 % 0.0 mm 179.0 W/m2 CLR
09:17 12.8 °C 6.1 °C 1023.9 hPa NW 25.9 km/h 25.9 km/h 64 % 0.0 mm 192.0 W/m2 CLR
09:22 12.8 °C 6.1 °C 1023.6 hPa NW 25.7 km/h 25.7 km/h 64 % 0.0 mm 200.0 W/m2 CLR
09:27 12.8 °C 5.9 °C 1023.9 hPa WNW 31.5 km/h 31.5 km/h 63 % 0.0 mm 100.0 W/m2 CLR
09:32 12.8 °C 5.9 °C 1023.9 hPa WNW 22.2 km/h 22.2 km/h 63 % 0.0 mm 243.0 W/m2 CLR
09:37 13.3 °C 6.4 °C 1023.9 hPa NW 29.6 km/h 29.6 km/h 63 % 0.0 mm 257.0 W/m2 CLR
09:42 13.3 °C 6.2 °C 1023.9 hPa NW 22.2 km/h 22.2 km/h 62 % 0.0 mm 272.0 W/m2 CLR
09:47 13.3 °C 6.2 °C 1023.9 hPa NW 27.8 km/h 27.8 km/h 62 % 0.0 mm 288.0 W/m2 CLR
09:52 13.3 °C 6.2 °C 1023.9 hPa WNW 27.8 km/h 27.8 km/h 62 % 0.0 mm 302.0 W/m2 CLR
09:57 13.3 °C 6.2 °C 1023.9 hPa NNW 31.5 km/h 31.5 km/h 62 % 0.0 mm 327.0 W/m2 CLR
10:02 13.9 °C 6.5 °C 1023.9 hPa NNW 31.5 km/h 31.5 km/h 61 % 0.0 mm 385.0 W/m2 CLR
10:07 13.9 °C 6.5 °C 1023.9 hPa NW 24.1 km/h 24.1 km/h 61 % 0.0 mm 232.0 W/m2 CLR
10:12 13.9 °C 6.5 °C 1023.9 hPa NW 27.8 km/h 27.8 km/h 61 % 0.0 mm 346.0 W/m2 CLR
10:17 14.4 °C 7.0 °C 1023.9 hPa NW 22.2 km/h 22.2 km/h 61 % 0.0 mm 281.0 W/m2 CLR
10:22 14.4 °C 7.0 °C 1023.6 hPa NW 24.1 km/h 24.1 km/h 61 % 0.0 mm 380.0 W/m2 CLR
10:27 14.4 °C 6.8 °C 1023.6 hPa North 20.9 km/h 20.9 km/h 60 % 0.0 mm 373.0 W/m2 CLR
10:28 14.4 °C 6.8 °C 1023.6 hPa NW 45.1 km/h 45.1 km/h 60 % 0.0 mm 336.0 W/m2 CLR
10:33 14.4 °C 6.8 °C 1023.6 hPa NW 42.6 km/h 42.6 km/h 60 % 0.0 mm 385.0 W/m2 CLR
10:38 14.4 °C 6.8 °C 1023.2 hPa NW 31.5 km/h 31.5 km/h 60 % 0.0 mm 394.0 W/m2 CLR
10:48 15.0 °C 7.1 °C 1023.2 hPa NW 29.6 km/h 29.6 km/h 59 % 0.0 mm 429.0 W/m2 CLR
10:53 15.0 °C 7.1 °C 1023.2 hPa WNW 29.0 km/h 29.0 km/h 59 % 0.0 mm 418.0 W/m2 CLR
10:58 15.0 °C 7.1 °C 1023.2 hPa NW 29.6 km/h 29.6 km/h 59 % 0.0 mm 425.0 W/m2 CLR
11:03 15.6 °C 7.3 °C 1022.9 hPa NW 27.8 km/h 27.8 km/h 58 % 0.0 mm 432.0 W/m2 CLR
11:08 15.6 °C 7.1 °C 1022.9 hPa NNW 35.4 km/h 35.4 km/h 57 % 0.0 mm 454.0 W/m2 CLR
11:13 15.6 °C 7.1 °C 1022.9 hPa NNW 31.5 km/h 31.5 km/h 57 % 0.0 mm 454.0 W/m2 CLR
11:18 16.1 °C 7.6 °C 1022.9 hPa North 51.8 km/h 51.8 km/h 57 % 0.0 mm 462.0 W/m2 CLR
11:23 16.1 °C 7.6 °C 1022.6 hPa North 35.2 km/h 35.2 km/h 57 % 0.0 mm 462.0 W/m2 CLR
11:28 16.1 °C 7.6 °C 1022.6 hPa North 38.9 km/h 38.9 km/h 57 % 0.0 mm 473.0 W/m2 CLR
11:33 16.1 °C 7.6 °C 1022.6 hPa NNW 42.6 km/h 42.6 km/h 57 % 0.0 mm 480.0 W/m2 CLR
11:38 16.1 °C 7.3 °C 1022.6 hPa NNW 53.7 km/h 53.7 km/h 56 % 0.0 mm 513.0 W/m2 CLR
11:43 16.1 °C 7.6 °C 1022.2 hPa NW 37.0 km/h 37.0 km/h 57 % 0.0 mm 496.0 W/m2 CLR
11:48 16.1 °C 7.3 °C 1022.2 hPa NNW 41.8 km/h 41.8 km/h 56 % 0.0 mm 494.0 W/m2 CLR
11:53 16.1 °C 7.1 °C 1022.2 hPa NW 42.6 km/h 42.6 km/h 55 % 0.0 mm 496.0 W/m2 CLR
11:58 16.7 °C 7.6 °C 1022.2 hPa NNW 46.7 km/h 46.7 km/h 55 % 0.0 mm 499.0 W/m2 CLR
12:03 16.7 °C 7.6 °C 1021.9 hPa NNW 50.0 km/h 50.0 km/h 55 % 0.0 mm 506.0 W/m2 CLR
12:08 16.7 °C 7.6 °C 1021.6 hPa NNW 48.1 km/h 48.1 km/h 55 % 0.0 mm 504.0 W/m2 CLR
12:13 16.7 °C 7.6 °C 1021.6 hPa NNW 44.4 km/h 44.4 km/h 55 % 0.0 mm 510.0 W/m2 CLR
12:18 16.7 °C 7.6 °C 1021.6 hPa NW 33.3 km/h 33.3 km/h 55 % 0.0 mm 512.0 W/m2 CLR
12:23 17.2 °C 7.8 °C 1021.2 hPa NNW 48.1 km/h 48.1 km/h 54 % 0.0 mm 513.0 W/m2 CLR
12:28 17.2 °C 7.8 °C 1021.2 hPa NW 55.5 km/h 55.5 km/h 54 % 0.0 mm 515.0 W/m2 CLR
12:33 17.2 °C 7.8 °C 1021.2 hPa NNW 44.4 km/h 44.4 km/h 54 % 0.0 mm 517.0 W/m2 CLR
12:38 17.2 °C 7.6 °C 1021.2 hPa NNW 37.0 km/h 37.0 km/h 53 % 0.0 mm 517.0 W/m2 CLR
12:43 17.8 °C 8.1 °C 1021.2 hPa NNW 29.6 km/h 29.6 km/h 53 % 0.0 mm 517.0 W/m2 CLR
12:48 17.8 °C 8.1 °C 1021.2 hPa NNW 42.6 km/h 42.6 km/h 53 % 0.0 mm 524.0 W/m2 CLR
12:53 17.2 °C 7.6 °C 1020.9 hPa NNW 25.9 km/h 25.9 km/h 53 % 0.0 mm 531.0 W/m2 CLR
12:58 17.8 °C 8.1 °C 1020.9 hPa NNW 35.2 km/h 35.2 km/h 53 % 0.0 mm 526.0 W/m2 CLR
13:03 17.8 °C 7.8 °C 1020.5 hPa NNW 46.3 km/h 46.3 km/h 52 % 0.0 mm 515.0 W/m2 CLR
13:08 18.3 °C 8.3 °C 1020.5 hPa North 30.6 km/h 30.6 km/h 52 % 0.0 mm 512.0 W/m2 CLR
13:13 18.3 °C 8.0 °C 1020.5 hPa NNW 41.8 km/h 41.8 km/h 51 % 0.0 mm 510.0 W/m2 CLR
13:18 18.3 °C 8.0 °C 1020.5 hPa North 38.9 km/h 38.9 km/h 51 % 0.0 mm 508.0 W/m2 CLR
13:23 18.3 °C 8.0 °C 1020.5 hPa North 48.1 km/h 48.1 km/h 51 % 0.0 mm 503.0 W/m2 CLR
13:24 18.3 °C 8.0 °C 1020.5 hPa NNW 48.1 km/h 48.1 km/h 51 % 0.0 mm 503.0 W/m2 CLR
13:29 18.3 °C 8.0 °C 1020.2 hPa NW 40.7 km/h 40.7 km/h 51 % 0.0 mm 504.0 W/m2 CLR
13:34 18.3 °C 8.0 °C 1020.2 hPa NNW 42.6 km/h 42.6 km/h 51 % 0.0 mm 499.0 W/m2 CLR
13:39 18.3 °C 8.0 °C 1020.2 hPa NNW 29.6 km/h 29.6 km/h 51 % 0.0 mm 492.0 W/m2 CLR
13:44 18.3 °C 7.7 °C 1020.2 hPa NNW 42.6 km/h 42.6 km/h 50 % 0.0 mm 489.0 W/m2 CLR
13:49 18.3 °C 8.0 °C 1019.9 hPa NNW 31.5 km/h 31.5 km/h 51 % 0.0 mm 482.0 W/m2 CLR
13:54 18.9 °C 8.2 °C 1019.9 hPa NNW 40.7 km/h 40.7 km/h 50 % 0.0 mm 476.0 W/m2 CLR
13:59 18.3 °C 7.7 °C 1019.9 hPa NW 31.5 km/h 31.5 km/h 50 % 0.0 mm 471.0 W/m2 CLR
14:04 18.9 °C 8.2 °C 1019.5 hPa North 42.6 km/h 42.6 km/h 50 % 0.0 mm 466.0 W/m2 CLR
14:09 18.3 °C 7.7 °C 1019.5 hPa NNW 40.7 km/h 40.7 km/h 50 % 0.0 mm 461.0 W/m2 CLR
14:14 18.3 °C 7.7 °C 1019.5 hPa NNW 46.3 km/h 46.3 km/h 50 % 0.0 mm 452.0 W/m2 CLR
14:19 18.3 °C 7.7 °C 1019.5 hPa NW 35.2 km/h 35.2 km/h 50 % 0.0 mm 446.0 W/m2 CLR
14:24 18.3 °C 7.7 °C 1019.5 hPa NNW 43.4 km/h 43.4 km/h 50 % 0.0 mm 439.0 W/m2 CLR
14:29 18.3 °C 7.7 °C 1019.2 hPa North 33.3 km/h 33.3 km/h 50 % 0.0 mm 429.0 W/m2 CLR
14:34 18.3 °C 7.7 °C 1019.2 hPa NNW 35.2 km/h 35.2 km/h 50 % 0.0 mm 422.0 W/m2 CLR
14:39 18.9 °C 7.9 °C 1019.2 hPa North 40.7 km/h 40.7 km/h 49 % 0.0 mm 415.0 W/m2 CLR
14:44 18.3 °C 7.4 °C 1019.2 hPa NW 42.6 km/h 42.6 km/h 49 % 0.0 mm 403.0 W/m2 CLR
14:49 18.9 °C 7.9 °C 1019.2 hPa North 37.0 km/h 37.0 km/h 49 % 0.0 mm 394.0 W/m2 CLR
14:54 18.9 °C 7.9 °C 1019.2 hPa North 42.6 km/h 42.6 km/h 49 % 0.0 mm 387.0 W/m2 CLR
14:59 18.3 °C 7.7 °C 1019.2 hPa NNE 29.6 km/h 29.6 km/h 50 % 0.0 mm 378.0 W/m2 CLR
15:04 18.3 °C 7.7 °C 1019.2 hPa North 50.0 km/h 50.0 km/h 50 % 0.0 mm 369.0 W/m2 CLR
15:09 18.3 °C 7.7 °C 1019.2 hPa NNW 48.1 km/h 48.1 km/h 50 % 0.0 mm 357.0 W/m2 CLR
15:14 18.3 °C 7.7 °C 1019.2 hPa NNW 53.7 km/h 53.7 km/h 50 % 0.0 mm 345.0 W/m2 CLR
15:19 18.3 °C 7.7 °C 1019.2 hPa NNW 44.4 km/h 44.4 km/h 50 % 0.0 mm 334.0 W/m2 CLR
15:24 18.3 °C 8.0 °C 1019.2 hPa NNW 35.2 km/h 35.2 km/h 51 % 0.0 mm 323.0 W/m2 CLR
15:29 18.3 °C 8.0 °C 1019.5 hPa NNW 45.1 km/h 45.1 km/h 51 % 0.0 mm 311.0 W/m2 CLR
15:34 18.3 °C 8.0 °C 1019.2 hPa NNW 46.7 km/h 46.7 km/h 51 % 0.0 mm 302.0 W/m2 CLR
15:39 18.3 °C 8.3 °C 1019.2 hPa NNW 35.2 km/h 35.2 km/h 52 % 0.0 mm 288.0 W/m2 CLR
15:44 17.8 °C 7.8 °C 1019.2 hPa North 48.3 km/h 48.3 km/h 52 % 0.0 mm 276.0 W/m2 CLR
15:49 17.8 °C 8.1 °C 1019.2 hPa NNW 33.8 km/h 33.8 km/h 53 % 0.0 mm 260.0 W/m2 CLR
15:54 17.8 °C 8.1 °C 1019.5 hPa NW 31.5 km/h 31.5 km/h 53 % 0.0 mm 250.0 W/m2 CLR
15:59 17.2 °C 7.6 °C 1019.2 hPa NNW 46.3 km/h 46.3 km/h 53 % 0.0 mm 236.0 W/m2 CLR
16:04 17.2 °C 7.8 °C 1019.2 hPa NNW 31.5 km/h 31.5 km/h 54 % 0.0 mm 234.0 W/m2 CLR
16:09 17.2 °C 7.6 °C 1019.2 hPa NW 48.1 km/h 48.1 km/h 53 % 0.0 mm 207.0 W/m2 CLR
16:14 17.2 °C 7.8 °C 1019.2 hPa NW 24.1 km/h 24.1 km/h 54 % 0.0 mm 186.0 W/m2 CLR
16:19 16.7 °C 7.3 °C 1019.2 hPa North 42.6 km/h 42.6 km/h 54 % 0.0 mm 169.0 W/m2 CLR
16:24 16.7 °C 7.3 °C 1019.2 hPa NNW 35.4 km/h 35.4 km/h 54 % 0.0 mm 155.0 W/m2 CLR
16:29 16.7 °C 7.3 °C 1018.8 hPa North 40.7 km/h 40.7 km/h 54 % 0.0 mm 141.0 W/m2 CLR
16:34 16.7 °C 7.3 °C 1018.8 hPa NNW 38.9 km/h 38.9 km/h 54 % 0.0 mm 123.0 W/m2 CLR
16:39 16.1 °C 7.1 °C 1018.8 hPa NNW 42.6 km/h 42.6 km/h 55 % 0.0 mm 109.0 W/m2 CLR
16:44 16.1 °C 7.1 °C 1018.8 hPa NW 33.8 km/h 33.8 km/h 55 % 0.0 mm 95.0 W/m2 CLR
16:49 16.1 °C 7.1 °C 1018.8 hPa North 42.6 km/h 42.6 km/h 55 % 0.0 mm 76.0 W/m2 FEW
16:54 16.1 °C 7.1 °C 1018.5 hPa North 53.1 km/h 53.1 km/h 55 % 0.0 mm 53.0 W/m2 SCT
16:59 16.1 °C 7.1 °C 1018.8 hPa NNW 53.7 km/h 53.7 km/h 55 % 0.0 mm 51.0 W/m2 SCT
17:04 16.1 °C 7.1 °C 1018.5 hPa NNW 53.7 km/h 53.7 km/h 55 % 0.0 mm 42.0 W/m2 BKN
17:09 16.1 °C 7.3 °C 1018.8 hPa NNW 35.4 km/h 35.4 km/h 56 % 0.0 mm 32.0 W/m2 BKN
17:14 16.1 °C 7.3 °C 1018.5 hPa North 42.6 km/h 42.6 km/h 56 % 0.0 mm 21.0 W/m2 BKN
17:19 15.6 °C 7.1 °C 1018.5 hPa North 35.2 km/h 35.2 km/h 57 % 0.0 mm 16.0 W/m2 BKN
17:25 15.6 °C 7.3 °C 1018.5 hPa NNW 44.4 km/h 44.4 km/h 58 % 0.0 mm 12.0 W/m2 BKN
17:30 15.6 °C 7.3 °C 1018.5 hPa NNW 35.2 km/h 35.2 km/h 58 % 0.0 mm 11.0 W/m2 BKN
17:35 15.0 °C 6.8 °C 1018.5 hPa NNW 32.2 km/h 32.2 km/h 58 % 0.0 mm 9.0 W/m2 BKN
17:40 15.0 °C 7.1 °C 1018.2 hPa NNW 38.9 km/h 38.9 km/h 59 % 0.0 mm 7.0 W/m2 BKN
17:45 15.0 °C 7.1 °C 1018.5 hPa North 42.6 km/h 42.6 km/h 59 % 0.0 mm 5.0 W/m2 OVC
17:50 15.0 °C 7.1 °C 1018.2 hPa North 32.2 km/h 32.2 km/h 59 % 0.0 mm 0.0 W/m2 OVC
17:55 15.0 °C 7.3 °C 1018.2 hPa NNW 46.3 km/h 46.3 km/h 60 % 0.0 mm 0.0 W/m2 CLR
18:00 15.0 °C 7.3 °C 1018.2 hPa NW 31.5 km/h 31.5 km/h 60 % 0.0 mm 0.0 W/m2 CLR
18:05 15.0 °C 7.3 °C 1018.2 hPa NNW 38.9 km/h 38.9 km/h 60 % 0.0 mm 0.0 W/m2 CLR
18:10 15.0 °C 7.3 °C 1018.5 hPa North 50.0 km/h 50.0 km/h 60 % 0.0 mm 0.0 W/m2 CLR
18:15 15.0 °C 7.3 °C 1018.5 hPa NNW 61.1 km/h 61.1 km/h 60 % 0.0 mm 0.0 W/m2 CLR
18:20 15.0 °C 7.3 °C 1018.5 hPa NNW 44.4 km/h 44.4 km/h 60 % 0.0 mm 0.0 W/m2 CLR
18:25 15.0 °C 7.6 °C 1018.8 hPa NNW 40.7 km/h 40.7 km/h 61 % 0.0 mm 0.0 W/m2 CLR
18:30 14.4 °C 7.0 °C 1018.5 hPa NNW 40.7 km/h 40.7 km/h 61 % 0.0 mm 0.0 W/m2 CLR
18:35 14.4 °C 7.0 °C 1018.5 hPa NW 40.7 km/h 40.7 km/h 61 % 0.0 mm 0.0 W/m2 CLR
18:40 14.4 °C 7.0 °C 1018.8 hPa North 32.2 km/h 32.2 km/h 61 % 0.0 mm 0.0 W/m2 CLR
18:45 14.4 °C 7.2 °C 1018.5 hPa NW 37.0 km/h 37.0 km/h 62 % 0.0 mm 0.0 W/m2 CLR
18:50 14.4 °C 7.2 °C 1018.5 hPa NW 40.7 km/h 40.7 km/h 62 % 0.0 mm 0.0 W/m2 CLR
18:55 14.4 °C 7.2 °C 1018.5 hPa NNW 45.1 km/h 45.1 km/h 62 % 0.0 mm 0.0 W/m2 CLR
19:00 14.4 °C 7.2 °C 1018.2 hPa NNW 35.4 km/h 35.4 km/h 62 % 0.0 mm 0.0 W/m2 CLR
19:05 14.4 °C 7.2 °C 1018.5 hPa NW 40.7 km/h 40.7 km/h 62 % 0.0 mm 0.0 W/m2 CLR
19:10 14.4 °C 7.2 °C 1018.5 hPa NNW 38.9 km/h 38.9 km/h 62 % 0.0 mm 0.0 W/m2 CLR
19:15 14.4 °C 7.2 °C 1018.5 hPa NNW 42.6 km/h 42.6 km/h 62 % 0.0 mm 0.0 W/m2 CLR
19:20 14.4 °C 7.2 °C 1018.2 hPa NNW 37.0 km/h 37.0 km/h 62 % 0.0 mm 0.0 W/m2 CLR
19:25 14.4 °C 7.0 °C 1018.5 hPa NW 40.7 km/h 40.7 km/h 61 % 0.0 mm 0.0 W/m2 CLR
19:30 14.4 °C 7.0 °C 1018.5 hPa NNW 31.5 km/h 31.5 km/h 61 % 0.0 mm 0.0 W/m2 CLR
19:35 14.4 °C 7.2 °C 1018.5 hPa NW 35.2 km/h 35.2 km/h 62 % 0.0 mm 0.0 W/m2 CLR
19:40 14.4 °C 7.2 °C 1018.5 hPa NW 24.1 km/h 24.1 km/h 62 % 0.0 mm 0.0 W/m2 CLR
19:45 13.9 °C 6.9 °C 1018.5 hPa NW 35.4 km/h 35.4 km/h 63 % 0.0 mm 0.0 W/m2 CLR
19:50 13.9 °C 6.7 °C 1018.5 hPa WNW 31.5 km/h 31.5 km/h 62 % 0.0 mm 0.0 W/m2 CLR
19:56 13.9 °C 6.9 °C 1018.2 hPa NW 40.7 km/h 40.7 km/h 63 % 0.0 mm 0.0 W/m2 CLR
20:01 13.9 °C 6.9 °C 1018.2 hPa NW 38.9 km/h 38.9 km/h 63 % 0.0 mm 0.0 W/m2 CLR
20:06 13.9 °C 6.9 °C 1018.2 hPa NNW 31.5 km/h 31.5 km/h 63 % 0.0 mm 0.0 W/m2 CLR
20:11 13.9 °C 6.9 °C 1018.2 hPa NW 31.5 km/h 31.5 km/h 63 % 0.0 mm 0.0 W/m2 CLR
20:16 13.9 °C 7.2 °C 1018.2 hPa NNW 31.5 km/h 31.5 km/h 64 % 0.0 mm 0.0 W/m2 CLR
20:21 13.9 °C 7.2 °C 1017.8 hPa NNW 37.0 km/h 37.0 km/h 64 % 0.0 mm 0.0 W/m2 CLR
20:26 13.9 °C 7.2 °C 1018.2 hPa NNW 38.9 km/h 38.9 km/h 64 % 0.0 mm 0.0 W/m2 CLR
20:31 13.9 °C 7.2 °C 1018.2 hPa NNW 48.1 km/h 48.1 km/h 64 % 0.0 mm 0.0 W/m2 CLR
20:36 13.9 °C 7.2 °C 1018.2 hPa NNW 31.5 km/h 31.5 km/h 64 % 0.0 mm 0.0 W/m2 CLR
20:41 13.9 °C 7.2 °C 1017.8 hPa WNW 31.5 km/h 31.5 km/h 64 % 0.0 mm 0.0 W/m2 CLR
20:46 13.9 °C 7.2 °C 1017.5 hPa WNW 31.5 km/h 31.5 km/h 64 % 0.0 mm 0.0 W/m2 CLR
20:51 13.9 °C 7.2 °C 1017.5 hPa NW 30.6 km/h 30.6 km/h 64 % 0.0 mm 0.0 W/m2 CLR
20:56 13.9 °C 7.2 °C 1017.8 hPa NW 33.3 km/h 33.3 km/h 64 % 0.0 mm 0.0 W/m2 CLR
21:01 13.9 °C 7.4 °C 1017.8 hPa WNW 31.5 km/h 31.5 km/h 65 % 0.0 mm 0.0 W/m2 CLR
21:06 13.9 °C 7.4 °C 1017.5 hPa NW 33.3 km/h 33.3 km/h 65 % 0.0 mm 0.0 W/m2 CLR
21:11 13.9 °C 7.4 °C 1017.5 hPa WNW 27.8 km/h 27.8 km/h 65 % 0.0 mm 0.0 W/m2 CLR
21:16 13.9 °C 7.4 °C 1017.8 hPa NW 38.9 km/h 38.9 km/h 65 % 0.0 mm 0.0 W/m2 CLR
21:21 13.9 °C 7.4 °C 1017.5 hPa NNW 31.5 km/h 31.5 km/h 65 % 0.0 mm 0.0 W/m2 CLR
21:26 13.9 °C 7.4 °C 1017.8 hPa WNW 37.0 km/h 37.0 km/h 65 % 0.0 mm 0.0 W/m2 CLR
21:31 13.9 °C 7.6 °C 1017.8 hPa NW 38.9 km/h 38.9 km/h 66 % 0.0 mm 0.0 W/m2 CLR
21:36 13.9 °C 7.4 °C 1017.8 hPa NNW 37.0 km/h 37.0 km/h 65 % 0.0 mm 0.0 W/m2 CLR
21:41 13.9 °C 7.6 °C 1017.8 hPa NW 31.5 km/h 31.5 km/h 66 % 0.0 mm 0.0 W/m2 CLR
21:46 13.9 °C 7.8 °C 1017.8 hPa NNW 55.5 km/h 55.5 km/h 67 % 0.0 mm 0.0 W/m2 CLR
21:51 13.9 °C 7.8 °C 1017.5 hPa NW 31.5 km/h 31.5 km/h 67 % 0.0 mm 0.0 W/m2 CLR
21:56 13.9 °C 7.8 °C 1017.5 hPa NNW 68.5 km/h 68.5 km/h 67 % 0.0 mm 0.0 W/m2 CLR
22:01 13.9 °C 7.8 °C 1017.5 hPa NW 42.6 km/h 42.6 km/h 67 % 0.0 mm 0.0 W/m2 CLR
22:06 13.9 °C 7.8 °C 1017.2 hPa NNW 42.6 km/h 42.6 km/h 67 % 0.0 mm 0.0 W/m2 CLR
22:11 13.9 °C 8.1 °C 1017.5 hPa NW 51.8 km/h 51.8 km/h 68 % 0.0 mm 0.0 W/m2 CLR
22:16 13.9 °C 8.1 °C 1017.2 hPa NNW 50.0 km/h 50.0 km/h 68 % 0.0 mm 0.0 W/m2 CLR
22:21 14.4 °C 8.6 °C 1017.5 hPa NW 51.8 km/h 51.8 km/h 68 % 0.0 mm 0.0 W/m2 CLR
22:23 14.4 °C 8.6 °C 1017.5 hPa NNW 66.6 km/h 66.6 km/h 68 % 0.0 mm 0.0 W/m2 CLR
22:26 14.4 °C 8.6 °C 1017.5 hPa NNW 66.6 km/h 66.6 km/h 68 % 0.0 mm 0.0 W/m2 CLR
22:31 13.9 °C 8.3 °C 1017.5 hPa NW 51.8 km/h 51.8 km/h 69 % 0.0 mm 0.0 W/m2 CLR
22:36 13.9 °C 8.3 °C 1017.5 hPa NNW 55.5 km/h 55.5 km/h 69 % 0.0 mm 0.0 W/m2 CLR
22:41 13.9 °C 8.3 °C 1017.5 hPa NNW 48.1 km/h 48.1 km/h 69 % 0.0 mm 0.0 W/m2
22:46 13.9 °C 8.5 °C 1017.5 hPa NNW 41.8 km/h 41.8 km/h 70 % 0.0 mm 0.0 W/m2 CLR
22:51 13.9 °C 8.5 °C 1017.5 hPa NW 35.2 km/h 35.2 km/h 70 % 0.0 mm 0.0 W/m2 CLR
22:56 13.9 °C 8.5 °C 1017.2 hPa NW 46.3 km/h 46.3 km/h 70 % 0.0 mm 0.0 W/m2 CLR
23:01 13.9 °C 8.5 °C 1017.5 hPa NNW 44.4 km/h 44.4 km/h 70 % 0.0 mm 0.0 W/m2 CLR
23:06 13.9 °C 8.5 °C 1017.5 hPa NNW 42.6 km/h 42.6 km/h 70 % 0.0 mm 0.0 W/m2 CLR
23:11 13.9 °C 8.5 °C 1017.5 hPa NW 42.6 km/h 42.6 km/h 70 % 0.0 mm 0.0 W/m2 CLR
23:16 13.9 °C 8.5 °C 1017.2 hPa WNW 38.9 km/h 38.9 km/h 70 % 0.0 mm 0.0 W/m2 CLR
23:21 13.9 °C 8.5 °C 1016.8 hPa NNW 45.1 km/h 45.1 km/h 70 % 0.0 mm 0.0 W/m2 CLR
23:26 13.9 °C 8.5 °C 1016.8 hPa NW 42.6 km/h 42.6 km/h 70 % 0.0 mm 0.0 W/m2 CLR
23:31 13.9 °C 8.5 °C 1016.8 hPa North 40.7 km/h 40.7 km/h 70 % 0.0 mm 0.0 W/m2 CLR
23:36 13.9 °C 8.5 °C 1016.8 hPa NNW 44.4 km/h 44.4 km/h 70 % 0.0 mm 0.0 W/m2 CLR
23:41 13.9 °C 8.3 °C 1016.8 hPa NNW 55.5 km/h 55.5 km/h 69 % 0.0 mm 0.0 W/m2 CLR
23:46 13.9 °C 8.3 °C 1016.8 hPa NW 42.6 km/h 42.6 km/h 69 % 0.0 mm 0.0 W/m2 CLR
23:51 13.9 °C 8.3 °C 1016.8 hPa NNW 48.1 km/h 48.1 km/h 69 % 0.0 mm 0.0 W/m2
23:56 13.9 °C 8.3 °C 1016.8 hPa NNW 46.3 km/h 46.3 km/h 69 % 0.0 mm 0.0 W/m2 CLR
Lo Temps de Massalio
Compliments of Weather Underground - 1.25 mb